Time;durP1;ratioP1;P1;durP2;ratioP2;P2;SDS_P1;SDS_P2;PMS_P1;PMS_P2;Temp;Humidity;BMP_temperature;BMP_pressure;BME280_temperature;BME280_humidity;BME280_pressure;Samples;Min_cycle;Max_cycle;Signal;HPM_P1;HPM_P2
2023/07/02 00:01:45;;;;;;;13.13;5.93;;;;;;;;;;5020317;28;20623;-74
2023/07/02 00:04:13;;;;;;;11.60;5.90;;;;;;;;;;5019132;28;22088;-75
2023/07/02 00:06:40;;;;;;;10.27;5.80;;;;;;;;;;5020861;28;20230;-74
2023/07/02 00:09:10;;;;;;;12.77;6.33;;;;;;;;;;5002442;28;20230;-75
2023/07/02 00:11:35;;;;;;;10.53;5.87;;;;;;;;;;4997175;28;20225;-75
2023/07/02 00:14:00;;;;;;;10.80;5.80;;;;;;;;;;5013948;28;20230;-75
2023/07/02 00:16:25;;;;;;;11.83;6.13;;;;;;;;;;5016331;28;20801;-75
2023/07/02 00:18:54;;;;;;;11.27;6.37;;;;;;;;;;5016273;28;20242;-75
2023/07/02 00:21:20;;;;;;;12.97;6.50;;;;;;;;;;5021969;28;20762;-75
2023/07/02 00:23:46;;;;;;;10.80;6.17;;;;;;;;;;5034631;28;20230;-74
2023/07/02 00:26:11;;;;;;;11.07;6.20;;;;;;;;;;5019369;28;20226;-75
2023/07/02 00:28:36;;;;;;;14.10;6.03;;;;;;;;;;4999260;28;20226;-74
2023/07/02 00:31:02;;;;;;;13.23;6.47;;;;;;;;;;5018374;28;20735;-75
2023/07/02 00:33:28;;;;;;;10.87;6.03;;;;;;;;;;5021428;28;20238;-74
2023/07/02 00:35:54;;;;;;;13.27;6.20;;;;;;;;;;5027459;28;20234;-74
2023/07/02 00:38:19;;;;;;;10.60;5.57;;;;;;;;;;5020351;28;20237;-74
2023/07/02 00:40:44;;;;;;;11.90;6.10;;;;;;;;;;5024308;28;20333;-74
2023/07/02 00:43:12;;;;;;;9.37;5.67;;;;;;;;;;5020036;28;20727;-74
2023/07/02 00:45:39;;;;;;;10.10;5.60;;;;;;;;;;5019141;28;20229;-75
2023/07/02 00:48:05;;;;;;;12.50;5.93;;;;;;;;;;5016589;28;20223;-75
2023/07/02 00:50:30;;;;;;;10.60;5.87;;;;;;;;;;5020543;28;20237;-75
2023/07/02 00:52:55;;;;;;;10.83;5.73;;;;;;;;;;5025359;28;20348;-74
2023/07/02 00:55:20;;;;;;;12.93;6.00;;;;;;;;;;5036861;28;20222;-74
2023/07/02 00:57:46;;;;;;;11.90;5.97;;;;;;;;;;5024875;28;20746;-75
2023/07/02 01:00:12;;;;;;;12.60;6.17;;;;;;;;;;5019536;28;20234;-73
2023/07/02 01:02:38;;;;;;;10.30;5.72;;;;;;;;;;5011716;28;20222;-74
2023/07/02 01:05:03;;;;;;;10.63;5.97;;;;;;;;;;5035019;28;20234;-75
2023/07/02 01:07:29;;;;;;;9.47;5.40;;;;;;;;;;5033215;28;20272;-74
2023/07/02 01:09:54;;;;;;;10.47;5.50;;;;;;;;;;5021276;28;20685;-74
2023/07/02 01:12:21;;;;;;;9.60;5.50;;;;;;;;;;5021319;28;20348;-74
2023/07/02 01:14:51;;;;;;;11.57;6.17;;;;;;;;;;5021028;28;20330;-75
2023/07/02 01:17:18;;;;;;;11.43;6.30;;;;;;;;;;5005497;28;20219;-74
2023/07/02 01:19:44;;;;;;;12.35;6.43;;;;;;;;;;5035059;28;20226;-74
2023/07/02 01:22:09;;;;;;;10.17;6.10;;;;;;;;;;5016850;28;20272;-76
2023/07/02 01:24:35;;;;;;;13.10;6.40;;;;;;;;;;5021356;28;20231;-75
2023/07/02 01:27:03;;;;;;;12.07;5.97;;;;;;;;;;5024352;28;20242;-75
2023/07/02 01:29:29;;;;;;;13.70;6.13;;;;;;;;;;5011644;28;20219;-75
2023/07/02 01:31:54;;;;;;;12.27;6.17;;;;;;;;;;5022058;28;20627;-75
2023/07/02 01:34:19;;;;;;;12.77;6.50;;;;;;;;;;5025145;28;20727;-74
2023/07/02 01:36:45;;;;;;;12.40;5.93;;;;;;;;;;5024728;28;20241;-75
2023/07/02 01:39:10;;;;;;;13.40;6.40;;;;;;;;;;5037088;28;20715;-75
2023/07/02 01:41:43;;;;;;;11.50;6.17;;;;;;;;;;5024220;28;20249;-75
2023/07/02 01:44:08;;;;;;;11.43;6.13;;;;;;;;;;4999719;28;20326;-74
2023/07/02 01:46:33;;;;;;;10.20;6.13;;;;;;;;;;5023854;28;20312;-74
2023/07/02 01:48:58;;;;;;;12.57;6.33;;;;;;;;;;5019046;28;20246;-75
2023/07/02 01:51:24;;;;;;;11.87;6.30;;;;;;;;;;5018821;28;20229;-74
2023/07/02 01:53:49;;;;;;;12.73;6.30;;;;;;;;;;5019309;28;20743;-74
2023/07/02 01:56:14;;;;;;;15.13;7.13;;;;;;;;;;5017114;28;20642;-74
2023/07/02 01:58:39;;;;;;;14.53;7.13;;;;;;;;;;5017053;28;20720;-74
2023/07/02 02:01:05;;;;;;;14.13;6.50;;;;;;;;;;4998504;28;20235;-74
2023/07/02 02:03:30;;;;;;;15.40;7.07;;;;;;;;;;5027864;28;20268;-75
2023/07/02 02:05:55;;;;;;;16.07;7.37;;;;;;;;;;5015992;28;20293;-74
2023/07/02 02:08:20;;;;;;;16.47;6.90;;;;;;;;;;5024285;28;20221;-74
2023/07/02 02:10:46;;;;;;;13.93;6.40;;;;;;;;;;5014490;28;21031;-75
2023/07/02 02:13:11;;;;;;;16.87;6.67;;;;;;;;;;5027774;28;20258;-75
2023/07/02 02:15:36;;;;;;;12.40;6.00;;;;;;;;;;5020927;28;20312;-73
2023/07/02 02:18:02;;;;;;;14.40;6.20;;;;;;;;;;5019782;28;20238;-74
2023/07/02 02:20:27;;;;;;;15.27;6.20;;;;;;;;;;5017261;28;20246;-74
2023/07/02 02:22:52;;;;;;;13.97;6.30;;;;;;;;;;5023666;28;20256;-74
2023/07/02 02:25:17;;;;;;;13.90;6.40;;;;;;;;;;5014907;28;20304;-73
2023/07/02 02:27:43;;;;;;;12.67;6.00;;;;;;;;;;5017517;28;20313;-74
2023/07/02 02:30:08;;;;;;;13.73;6.50;;;;;;;;;;5019051;28;20309;-74
2023/07/02 02:32:33;;;;;;;14.00;6.20;;;;;;;;;;5025209;28;20233;-74
2023/07/02 02:34:59;;;;;;;11.73;5.90;;;;;;;;;;5018396;28;20292;-74
2023/07/02 02:37:24;;;;;;;14.63;6.20;;;;;;;;;;5034949;28;20222;-74
2023/07/02 02:39:50;;;;;;;17.10;6.07;;;;;;;;;;5022897;28;20299;-74
2023/07/02 02:42:15;;;;;;;15.10;6.83;;;;;;;;;;5020983;28;20292;-74
2023/07/02 02:44:41;;;;;;;16.33;6.60;;;;;;;;;;5021098;28;20284;-75
2023/07/02 02:47:06;;;;;;;12.83;6.90;;;;;;;;;;4998929;28;20233;-74
2023/07/02 02:49:31;;;;;;;14.27;6.63;;;;;;;;;;5025576;28;20248;-75
2023/07/02 02:51:56;;;;;;;18.10;6.63;;;;;;;;;;5023853;28;20854;-75
2023/07/02 02:54:22;;;;;;;14.87;6.73;;;;;;;;;;5017870;28;20276;-75
2023/07/02 02:56:47;;;;;;;12.80;6.57;;;;;;;;;;5022683;28;20229;-74
2023/07/02 02:59:12;;;;;;;15.67;6.90;;;;;;;;;;5016333;28;20224;-75
2023/07/02 03:01:38;;;;;;;18.47;7.30;;;;;;;;;;5012331;28;20226;-75
2023/07/02 03:04:03;;;;;;;13.93;6.30;;;;;;;;;;5006671;28;20234;-75
2023/07/02 03:06:30;;;;;;;17.13;6.47;;;;;;;;;;5018074;28;20285;-75
2023/07/02 03:08:55;;;;;;;14.93;6.70;;;;;;;;;;5019688;28;20226;-75
2023/07/02 03:11:20;;;;;;;16.50;6.73;;;;;;;;;;5019155;28;20319;-75
2023/07/02 03:13:45;;;;;;;13.13;6.37;;;;;;;;;;5020229;28;20329;-76
2023/07/02 03:16:11;;;;;;;13.23;6.20;;;;;;;;;;5009541;28;20676;-75
2023/07/02 03:18:36;;;;;;;14.43;6.63;;;;;;;;;;5020344;28;20248;-74
2023/07/02 03:21:01;;;;;;;12.57;6.20;;;;;;;;;;5019697;28;20229;-75
2023/07/02 03:23:26;;;;;;;13.90;6.40;;;;;;;;;;5023226;28;20291;-74
2023/07/02 03:25:52;;;;;;;12.70;6.17;;;;;;;;;;5032878;28;20250;-75
2023/07/02 03:28:17;;;;;;;15.73;6.67;;;;;;;;;;5020316;28;20236;-76
2023/07/02 03:30:42;;;;;;;14.50;6.63;;;;;;;;;;5015587;28;20759;-75
2023/07/02 03:33:08;;;;;;;13.50;6.27;;;;;;;;;;5016352;28;20303;-75
2023/07/02 03:35:33;;;;;;;13.93;6.40;;;;;;;;;;5031592;28;20780;-74
2023/07/02 03:37:59;;;;;;;14.67;6.30;;;;;;;;;;5019114;28;20246;-75
2023/07/02 03:40:24;;;;;;;15.10;6.27;;;;;;;;;;5022400;28;20333;-75
2023/07/02 03:42:49;;;;;;;15.13;6.50;;;;;;;;;;5014376;28;20249;-75
2023/07/02 03:45:14;;;;;;;13.10;6.20;;;;;;;;;;5022125;28;20229;-74
2023/07/02 03:47:40;;;;;;;17.37;6.40;;;;;;;;;;5019700;28;20222;-74
2023/07/02 03:50:05;;;;;;;13.03;6.37;;;;;;;;;;5019832;28;20274;-79
2023/07/02 03:52:31;;;;;;;16.43;6.67;;;;;;;;;;5017050;28;20235;-80
2023/07/02 03:54:56;;;;;;;15.80;6.87;;;;;;;;;;5021616;28;20241;-80
2023/07/02 03:57:21;;;;;;;17.47;9.47;;;;;;;;;;5008710;28;20223;-78
2023/07/02 03:59:47;;;;;;;15.40;8.57;;;;;;;;;;5026745;28;20299;-79
2023/07/02 04:02:12;;;;;;;18.43;9.23;;;;;;;;;;5023959;28;20222;-80
2023/07/02 04:04:37;;;;;;;16.23;9.40;;;;;;;;;;5022113;28;20225;-78
2023/07/02 04:07:02;;;;;;;15.77;8.40;;;;;;;;;;5036742;28;20833;-80
2023/07/02 04:09:28;;;;;;;20.77;9.67;;;;;;;;;;5021135;28;20222;-82
2023/07/02 04:11:53;;;;;;;20.93;9.83;;;;;;;;;;5025149;28;20241;-81
2023/07/02 04:14:18;;;;;;;18.73;9.57;;;;;;;;;;5033744;28;20317;-79
2023/07/02 04:16:45;;;;;;;18.97;8.90;;;;;;;;;;5022598;28;20245;-80
2023/07/02 04:19:10;;;;;;;16.23;8.37;;;;;;;;;;5019835;28;20238;-80
2023/07/02 04:21:35;;;;;;;17.80;9.17;;;;;;;;;;5002889;28;20637;-79
2023/07/02 04:24:01;;;;;;;17.37;8.60;;;;;;;;;;5023891;28;20226;-79
2023/07/02 04:26:26;;;;;;;19.97;8.83;;;;;;;;;;4998021;28;20821;-80
2023/07/02 04:28:52;;;;;;;21.20;8.43;;;;;;;;;;5020550;28;20257;-78
2023/07/02 04:31:19;;;;;;;17.63;9.10;;;;;;;;;;5023470;28;20309;-79
2023/07/02 04:33:44;;;;;;;23.97;9.47;;;;;;;;;;5031648;28;20257;-79
2023/07/02 04:36:09;;;;;;;16.13;8.57;;;;;;;;;;5026702;28;20733;-80
2023/07/02 04:38:34;;;;;;;21.03;9.00;;;;;;;;;;5025492;28;20234;-80
2023/07/02 04:41:04;;;;;;;15.33;8.57;;;;;;;;;;5024851;28;20226;-80
2023/07/02 04:43:31;;;;;;;19.50;8.20;;;;;;;;;;5035086;28;20231;-80
2023/07/02 04:45:56;;;;;;;18.00;8.17;;;;;;;;;;5020366;28;20224;-79
2023/07/02 04:48:21;;;;;;;18.60;8.10;;;;;;;;;;5001807;28;20231;-80
2023/07/02 04:50:46;;;;;;;16.43;8.20;;;;;;;;;;4997723;28;20350;-79
2023/07/02 04:53:12;;;;;;;17.20;8.10;;;;;;;;;;5021004;28;20621;-79
2023/07/02 04:55:37;;;;;;;16.07;7.93;;;;;;;;;;5020461;28;20222;-80
2023/07/02 04:58:02;;;;;;;15.70;7.83;;;;;;;;;;4999764;28;20223;-78
2023/07/02 05:00:28;;;;;;;15.93;7.77;;;;;;;;;;5021274;28;20425;-79
2023/07/02 05:02:53;;;;;;;14.50;7.90;;;;;;;;;;5023177;28;20226;-80
2023/07/02 05:05:18;;;;;;;18.37;8.73;;;;;;;;;;5020778;28;20233;-74
2023/07/02 05:07:43;;;;;;;16.23;7.73;;;;;;;;;;5021805;28;20270;-74
2023/07/02 05:10:09;;;;;;;14.57;7.57;;;;;;;;;;5024257;28;20226;-74
2023/07/02 05:12:34;;;;;;;14.90;7.63;;;;;;;;;;5020374;28;20244;-73
2023/07/02 05:14:59;;;;;;;16.57;8.23;;;;;;;;;;5020887;28;20303;-74
2023/07/02 05:17:25;;;;;;;19.80;8.37;;;;;;;;;;5022643;28;20226;-74
2023/07/02 05:19:50;;;;;;;20.17;8.37;;;;;;;;;;5019598;28;20203;-74
2023/07/02 05:22:15;;;;;;;17.20;7.90;;;;;;;;;;4995126;28;20881;-74
2023/07/02 05:24:41;;;;;;;16.20;8.03;;;;;;;;;;5000373;28;20238;-74
2023/07/02 05:27:06;;;;;;;16.87;8.30;;;;;;;;;;5018426;28;20230;-74
2023/07/02 05:29:31;;;;;;;17.27;8.70;;;;;;;;;;5020226;28;20288;-74
2023/07/02 05:31:56;;;;;;;18.37;8.37;;;;;;;;;;5020874;28;20244;-74
2023/07/02 05:34:22;;;;;;;16.50;8.60;;;;;;;;;;5023185;28;20226;-74
2023/07/02 05:36:47;;;;;;;16.67;7.97;;;;;;;;;;5018644;28;20226;-74
2023/07/02 05:39:12;;;;;;;15.87;8.37;;;;;;;;;;5020982;28;20310;-78
2023/07/02 05:41:38;;;;;;;22.17;8.87;;;;;;;;;;5020755;28;20308;-78
2023/07/02 05:44:03;;;;;;;18.53;8.17;;;;;;;;;;5020541;28;20227;-79
2023/07/02 05:46:28;;;;;;;21.47;8.80;;;;;;;;;;4998809;28;20622;-78
2023/07/02 05:48:57;;;;;;;18.33;8.93;;;;;;;;;;5021287;28;20296;-78
2023/07/02 05:51:22;;;;;;;17.87;8.90;;;;;;;;;;5023282;28;20242;-78
2023/07/02 05:53:48;;;;;;;17.27;8.90;;;;;;;;;;5015849;28;20248;-78
2023/07/02 05:56:13;;;;;;;15.70;8.47;;;;;;;;;;4999283;28;20310;-77
2023/07/02 05:58:38;;;;;;;17.23;8.10;;;;;;;;;;5021200;28;20301;-78
2023/07/02 06:01:05;;;;;;;17.27;7.90;;;;;;;;;;5001751;28;20912;-77
2023/07/02 06:03:30;;;;;;;16.63;7.70;;;;;;;;;;5013942;28;20273;-78
2023/07/02 06:05:55;;;;;;;16.03;7.97;;;;;;;;;;5002842;28;20673;-78
2023/07/02 06:08:20;;;;;;;19.00;7.93;;;;;;;;;;5024075;28;20230;-78
2023/07/02 06:10:46;;;;;;;21.43;8.63;;;;;;;;;;5023070;28;20230;-78
2023/07/02 06:13:11;;;;;;;19.20;8.67;;;;;;;;;;5023662;28;20288;-77
2023/07/02 06:15:36;;;;;;;20.23;8.53;;;;;;;;;;5005583;28;20230;-77
2023/07/02 06:18:02;;;;;;;18.17;8.57;;;;;;;;;;5015891;28;20234;-77
2023/07/02 06:20:27;;;;;;;17.93;8.73;;;;;;;;;;5013859;28;20681;-77
2023/07/02 06:22:52;;;;;;;15.17;8.07;;;;;;;;;;5022995;28;20237;-76
2023/07/02 06:25:18;;;;;;;15.17;7.93;;;;;;;;;;5034531;28;20224;-77
2023/07/02 06:27:43;;;;;;;17.87;9.23;;;;;;;;;;5014180;28;20729;-77
2023/07/02 06:30:08;;;;;;;18.33;8.83;;;;;;;;;;4999558;28;20246;-77
2023/07/02 06:32:33;;;;;;;17.57;9.23;;;;;;;;;;4978908;28;20237;-77
2023/07/02 06:34:59;;;;;;;17.57;9.00;;;;;;;;;;5000396;28;20603;-76
2023/07/02 06:37:24;;;;;;;17.97;8.83;;;;;;;;;;5019496;28;20226;-77
2023/07/02 06:39:49;;;;;;;21.00;9.53;;;;;;;;;;5033969;28;20218;-76
2023/07/02 06:42:15;;;;;;;16.23;9.30;;;;;;;;;;5024118;28;20226;-77
2023/07/02 06:44:40;;;;;;;19.37;9.43;;;;;;;;;;5020558;28;20241;-76
2023/07/02 06:47:05;;;;;;;17.17;9.33;;;;;;;;;;5026256;28;21040;-77
2023/07/02 06:49:31;;;;;;;18.53;9.73;;;;;;;;;;4998294;28;20745;-77
2023/07/02 06:51:56;;;;;;;18.57;10.10;;;;;;;;;;5006293;28;20230;-77
2023/07/02 06:54:21;;;;;;;19.87;9.30;;;;;;;;;;5016250;28;20235;-77
2023/07/02 06:56:46;;;;;;;23.40;9.50;;;;;;;;;;5016622;28;20233;-76
2023/07/02 06:59:12;;;;;;;17.27;8.82;;;;;;;;;;5020985;28;20226;-77
2023/07/02 07:01:37;;;;;;;14.80;8.77;;;;;;;;;;5022572;28;20237;-78
2023/07/02 07:04:03;;;;;;;23.30;8.93;;;;;;;;;;5020420;28;20230;-76
2023/07/02 07:06:29;;;;;;;16.43;8.60;;;;;;;;;;5023790;28;20222;-76
2023/07/02 07:08:54;;;;;;;19.53;9.07;;;;;;;;;;5018247;28;20256;-77
2023/07/02 07:11:19;;;;;;;17.37;9.30;;;;;;;;;;5015961;28;20222;-77
2023/07/02 07:13:44;;;;;;;16.27;8.77;;;;;;;;;;5013271;28;20234;-77
2023/07/02 07:16:10;;;;;;;16.10;8.43;;;;;;;;;;4996061;28;20226;-77
2023/07/02 07:18:35;;;;;;;16.13;8.13;;;;;;;;;;5021425;28;20252;-77
2023/07/02 07:21:00;;;;;;;21.17;8.60;;;;;;;;;;5022754;28;20230;-77
2023/07/02 07:23:25;;;;;;;18.33;8.60;;;;;;;;;;5019138;28;20678;-76
2023/07/02 07:25:51;;;;;;;15.90;8.10;;;;;;;;;;5019732;28;20236;-77
2023/07/02 07:28:16;;;;;;;18.35;8.65;;;;;;;;;;5018331;28;20300;-77
2023/07/02 07:30:42;;;;;;;16.90;8.47;;;;;;;;;;5020881;28;20264;-76
2023/07/02 07:33:07;;;;;;;18.17;8.10;;;;;;;;;;5019227;28;20257;-77
2023/07/02 07:35:33;;;;;;;14.77;7.93;;;;;;;;;;5020366;28;20742;-77
2023/07/02 07:37:58;;;;;;;16.07;7.87;;;;;;;;;;5019246;28;20230;-77
2023/07/02 07:40:23;;;;;;;16.47;8.00;;;;;;;;;;5020348;28;20209;-77
2023/07/02 07:42:48;;;;;;;15.32;7.50;;;;;;;;;;5026661;28;20249;-77
2023/07/02 07:45:14;;;;;;;15.67;8.03;;;;;;;;;;5001215;28;20696;-77
2023/07/02 07:47:39;;;;;;;15.30;7.53;;;;;;;;;;5021942;28;20252;-77
2023/07/02 07:50:10;;;;;;;16.35;7.50;;;;;;;;;;5024490;28;20242;-77
2023/07/02 07:52:38;;;;;;;14.60;7.33;;;;;;;;;;5038047;28;20237;-78
2023/07/02 07:55:04;;;;;;;16.73;8.10;;;;;;;;;;5032121;28;20214;-77
2023/07/02 07:57:29;;;;;;;16.30;7.43;;;;;;;;;;5020121;28;20664;-77
2023/07/02 07:59:55;;;;;;;17.17;8.13;;;;;;;;;;5022831;28;20238;-77
2023/07/02 08:02:22;;;;;;;15.13;7.80;;;;;;;;;;5024370;28;20214;-76
2023/07/02 08:04:48;;;;;;;17.67;8.07;;;;;;;;;;5020014;28;20226;-77
2023/07/02 08:07:13;;;;;;;14.70;7.47;;;;;;;;;;5023571;28;20222;-76
2023/07/02 08:09:38;;;;;;;17.65;8.27;;;;;;;;;;5011597;28;20230;-77
2023/07/02 08:12:04;;;;;;;17.07;7.90;;;;;;;;;;5021667;28;20230;-77
2023/07/02 08:14:29;;;;;;;16.43;7.53;;;;;;;;;;5020974;28;20611;-77
2023/07/02 08:16:54;;;;;;;17.20;7.70;;;;;;;;;;5026097;28;20283;-78
2023/07/02 08:19:21;;;;;;;18.00;8.40;;;;;;;;;;5024658;28;20225;-78
2023/07/02 08:21:46;;;;;;;17.20;8.02;;;;;;;;;;5010990;28;20229;-77
2023/07/02 08:24:12;;;;;;;16.73;8.45;;;;;;;;;;5019933;28;20238;-77
2023/07/02 08:26:38;;;;;;;18.33;7.90;;;;;;;;;;5016892;28;20613;-77
2023/07/02 08:29:03;;;;;;;15.20;8.07;;;;;;;;;;5024193;28;20233;-78
2023/07/02 08:31:28;;;;;;;18.80;7.95;;;;;;;;;;5023921;28;20214;-77
2023/07/02 08:33:53;;;;;;;14.63;7.05;;;;;;;;;;5024643;28;20233;-77
2023/07/02 08:36:19;;;;;;;13.65;7.50;;;;;;;;;;5022488;28;20214;-77
2023/07/02 08:38:44;;;;;;;14.03;7.63;;;;;;;;;;5017727;28;20739;-78
2023/07/02 08:41:09;;;;;;;14.13;7.50;;;;;;;;;;5018270;28;20312;-77
2023/07/02 08:43:35;;;;;;;14.68;8.05;;;;;;;;;;5024039;28;20222;-77
2023/07/02 08:46:00;;;;;;;14.23;7.33;;;;;;;;;;5000175;28;20779;-77
2023/07/02 08:48:26;;;;;;;13.35;6.93;;;;;;;;;;5006675;28;20223;-76
2023/07/02 08:50:51;;;;;;;13.93;7.13;;;;;;;;;;5020562;28;20229;-77
2023/07/02 08:53:16;;;;;;;16.98;7.28;;;;;;;;;;5014788;28;20243;-76
2023/07/02 08:55:42;;;;;;;13.52;7.47;;;;;;;;;;5015452;28;20346;-76
2023/07/02 08:58:07;;;;;;;16.30;7.40;;;;;;;;;;5024443;28;20268;-77
2023/07/02 09:00:36;;;;;;;13.53;7.40;;;;;;;;;;5025861;28;20221;-76
2023/07/02 09:03:17;;;;;;;13.13;7.13;;;;;;;;;;5012770;28;20280;-77
2023/07/02 09:05:49;;;;;;;12.88;6.78;;;;;;;;;;5021346;28;20273;-77
2023/07/02 09:08:22;;;;;;;12.87;7.00;;;;;;;;;;5023969;28;20273;-77
2023/07/02 09:10:47;;;;;;;14.05;7.40;;;;;;;;;;5032330;28;20368;-76
2023/07/02 09:13:12;;;;;;;11.00;6.82;;;;;;;;;;5022370;28;20784;-76
2023/07/02 09:15:38;;;;;;;12.73;7.20;;;;;;;;;;5022028;28;20225;-77
2023/07/02 09:18:13;;;;;;;14.90;7.60;;;;;;;;;;5023097;28;20247;-77
2023/07/02 09:20:39;;;;;;;13.17;7.27;;;;;;;;;;5023464;28;20233;-77
2023/07/02 09:23:04;;;;;;;14.45;7.05;;;;;;;;;;4997981;28;20286;-77
2023/07/02 09:25:39;;;;;;;11.23;6.70;;;;;;;;;;4998232;28;20231;-77
2023/07/02 09:28:17;;;;;;;13.80;6.60;;;;;;;;;;5020475;28;20213;-77
2023/07/02 09:30:52;;;;;;;12.95;6.43;;;;;;;;;;5026183;28;20244;-77
2023/07/02 09:33:17;;;;;;;10.98;6.45;;;;;;;;;;5020458;28;20750;-77
2023/07/02 09:35:43;;;;;;;11.27;6.38;;;;;;;;;;5019679;28;20226;-78
2023/07/02 09:38:09;;;;;;;13.30;6.25;;;;;;;;;;5025639;28;20222;-77
2023/07/02 09:40:34;;;;;;;12.43;6.38;;;;;;;;;;5019903;28;20252;-77
2023/07/02 09:43:00;;;;;;;12.20;6.13;;;;;;;;;;5014083;28;20728;-77
2023/07/02 09:45:25;;;;;;;12.73;6.32;;;;;;;;;;5019991;28;20219;-77
2023/07/02 09:47:51;;;;;;;11.90;6.53;;;;;;;;;;4999648;28;20234;-76
2023/07/02 09:50:17;;;;;;;14.85;6.70;;;;;;;;;;5018842;28;20317;-77
2023/07/02 09:52:43;;;;;;;12.77;6.57;;;;;;;;;;5019197;28;20242;-76
2023/07/02 09:55:09;;;;;;;11.63;7.03;;;;;;;;;;5025502;28;20238;-77
2023/07/02 09:57:34;;;;;;;14.65;7.10;;;;;;;;;;5040406;28;20251;-76
2023/07/02 10:00:02;;;;;;;13.82;7.47;;;;;;;;;;5028698;28;20218;-76
2023/07/02 10:02:28;;;;;;;12.68;6.50;;;;;;;;;;5025530;28;20279;-76
2023/07/02 10:04:55;;;;;;;12.48;7.38;;;;;;;;;;5029734;28;20253;-76
2023/07/02 10:07:27;;;;;;;12.80;6.60;;;;;;;;;;5031519;28;20764;-76
2023/07/02 10:09:52;;;;;;;12.40;6.75;;;;;;;;;;5025013;28;20226;-77
2023/07/02 10:12:21;;;;;;;12.18;6.53;;;;;;;;;;5022042;28;20619;-77
2023/07/02 10:14:47;;;;;;;12.07;6.68;;;;;;;;;;5030210;28;20237;-78
2023/07/02 10:17:24;;;;;;;13.57;6.03;;;;;;;;;;5016004;28;20734;-77
2023/07/02 10:19:50;;;;;;;14.85;6.82;;;;;;;;;;5015595;28;20611;-78
2023/07/02 10:22:15;;;;;;;10.65;6.13;;;;;;;;;;5031330;28;20211;-77
2023/07/02 10:24:49;;;;;;;12.95;6.15;;;;;;;;;;5020145;28;20228;-77
2023/07/02 10:27:15;;;;;;;11.25;6.38;;;;;;;;;;5025162;28;20229;-78
2023/07/02 10:29:44;;;;;;;10.27;5.95;;;;;;;;;;5015490;28;20238;-77
2023/07/02 10:32:10;;;;;;;11.07;5.63;;;;;;;;;;5022591;28;20249;-77
2023/07/02 10:34:35;;;;;;;10.85;5.70;;;;;;;;;;5021054;28;20307;-78
2023/07/02 10:37:01;;;;;;;10.57;5.80;;;;;;;;;;5022733;28;20259;-78
2023/07/02 10:39:26;;;;;;;12.05;5.90;;;;;;;;;;5013899;28;20222;-77
2023/07/02 10:41:51;;;;;;;10.02;5.88;;;;;;;;;;5004011;28;20272;-78
2023/07/02 10:44:17;;;;;;;11.48;6.30;;;;;;;;;;5036309;28;20306;-78
2023/07/02 10:46:46;;;;;;;12.48;5.53;;;;;;;;;;5017223;28;20668;-79
2023/07/02 10:49:11;;;;;;;8.68;5.28;;;;;;;;;;5024057;28;20230;-77
2023/07/02 10:51:37;;;;;;;10.10;5.78;;;;;;;;;;5018499;28;20226;-77
2023/07/02 10:54:04;;;;;;;15.60;6.10;;;;;;;;;;5023482;28;20242;-77
2023/07/02 10:56:29;;;;;;;13.52;5.90;;;;;;;;;;5032352;28;20257;-77
2023/07/02 10:58:54;;;;;;;9.52;5.68;;;;;;;;;;5024728;28;20217;-77
2023/07/02 11:01:23;;;;;;;10.40;5.53;;;;;;;;;;5022242;28;20684;-76
2023/07/02 11:03:55;;;;;;;10.35;5.90;;;;;;;;;;5036191;28;20230;-78
2023/07/02 11:06:20;;;;;;;9.93;5.68;;;;;;;;;;5009086;28;20272;-76
2023/07/02 11:08:45;;;;;;;9.93;5.65;;;;;;;;;;5028395;28;20281;-76
2023/07/02 11:11:11;;;;;;;11.90;5.78;;;;;;;;;;5025656;28;20221;-78
2023/07/02 11:13:43;;;;;;;9.80;5.63;;;;;;;;;;5021979;28;20253;-77
2023/07/02 11:16:16;;;;;;;9.85;5.82;;;;;;;;;;5001469;28;20226;-77
2023/07/02 11:18:42;;;;;;;8.70;5.55;;;;;;;;;;5016768;28;20244;-78
2023/07/02 11:21:10;;;;;;;9.32;5.45;;;;;;;;;;5022372;28;20214;-77
2023/07/02 11:23:36;;;;;;;9.70;5.43;;;;;;;;;;5016229;28;20261;-78
2023/07/02 11:26:02;;;;;;;9.77;5.57;;;;;;;;;;5023439;28;20281;-77
2023/07/02 11:28:28;;;;;;;9.18;5.40;;;;;;;;;;5017435;28;20229;-80
2023/07/02 11:30:53;;;;;;;9.40;5.40;;;;;;;;;;5006645;28;20254;-79
2023/07/02 11:33:20;;;;;;;11.60;5.40;;;;;;;;;;5023696;28;20268;-78
2023/07/02 11:35:45;;;;;;;10.88;5.75;;;;;;;;;;5022559;28;20249;-80
2023/07/02 11:38:10;;;;;;;10.07;5.43;;;;;;;;;;5021670;28;20390;-79
2023/07/02 11:40:36;;;;;;;9.85;5.35;;;;;;;;;;5028112;28;20226;-79
2023/07/02 11:43:01;;;;;;;10.10;5.50;;;;;;;;;;5020729;28;20314;-80
2023/07/02 11:45:27;;;;;;;9.02;5.57;;;;;;;;;;4994674;28;20223;-78
2023/07/02 11:47:52;;;;;;;9.35;5.55;;;;;;;;;;4980112;28;20236;-79
2023/07/02 11:50:17;;;;;;;10.95;5.53;;;;;;;;;;5019206;28;20221;-81
2023/07/02 11:52:42;;;;;;;9.45;5.55;;;;;;;;;;4996365;28;20230;-73
2023/07/02 11:55:08;;;;;;;10.15;5.47;;;;;;;;;;4997585;28;20736;-76
2023/07/02 11:57:33;;;;;;;12.40;5.57;;;;;;;;;;5014377;28;20237;-75
2023/07/02 11:59:59;;;;;;;11.90;5.75;;;;;;;;;;5021638;28;20309;-74
2023/07/02 12:02:25;;;;;;;10.50;5.72;;;;;;;;;;4995879;28;20234;-74
2023/07/02 12:04:50;;;;;;;9.45;5.57;;;;;;;;;;4995599;28;20228;-75
2023/07/02 12:07:15;;;;;;;10.23;5.05;;;;;;;;;;5015238;28;20752;-75
2023/07/02 12:09:41;;;;;;;9.23;5.07;;;;;;;;;;5018888;28;20237;-73
2023/07/02 12:12:06;;;;;;;6.63;4.60;;;;;;;;;;5017260;28;20317;-75
2023/07/02 12:14:31;;;;;;;9.38;4.35;;;;;;;;;;5019565;28;20230;-75
2023/07/02 12:16:57;;;;;;;8.18;4.40;;;;;;;;;;5020313;28;20218;-75
2023/07/02 12:19:22;;;;;;;9.35;4.85;;;;;;;;;;5021967;28;20310;-74
2023/07/02 12:21:47;;;;;;;7.60;4.97;;;;;;;;;;5019795;28;20261;-74
2023/07/02 12:24:12;;;;;;;8.43;5.20;;;;;;;;;;5022324;28;20229;-74
2023/07/02 12:26:39;;;;;;;11.40;4.95;;;;;;;;;;5025763;28;20218;-74
2023/07/02 12:29:04;;;;;;;9.00;5.10;;;;;;;;;;5019080;28;20221;-75
2023/07/02 12:31:30;;;;;;;7.43;4.70;;;;;;;;;;5021024;28;20226;-74
2023/07/02 12:33:55;;;;;;;8.63;5.10;;;;;;;;;;5024259;28;20307;-75
2023/07/02 12:36:20;;;;;;;8.32;4.70;;;;;;;;;;5023819;28;20308;-74
2023/07/02 12:38:45;;;;;;;7.60;5.00;;;;;;;;;;5023968;28;20235;-74
2023/07/02 12:41:11;;;;;;;9.35;5.05;;;;;;;;;;5020846;28;20268;-75
2023/07/02 12:43:36;;;;;;;7.57;4.85;;;;;;;;;;5022322;28;20704;-74
2023/07/02 12:46:01;;;;;;;9.60;5.28;;;;;;;;;;5023598;28;21268;-77
2023/07/02 12:48:26;;;;;;;9.93;5.43;;;;;;;;;;5012614;28;20632;-75
2023/07/02 12:50:58;;;;;;;9.30;5.15;;;;;;;;;;5015220;28;20233;-75
2023/07/02 12:53:26;;;;;;;9.27;5.43;;;;;;;;;;5023740;28;20728;-75
2023/07/02 12:55:52;;;;;;;8.20;5.20;;;;;;;;;;5001432;28;20225;-76
2023/07/02 12:58:17;;;;;;;9.32;5.30;;;;;;;;;;4993907;28;20234;-74
2023/07/02 13:00:43;;;;;;;10.43;5.57;;;;;;;;;;5025470;28;20219;-75
2023/07/02 13:03:11;;;;;;;9.93;5.65;;;;;;;;;;5018807;28;20223;-75
2023/07/02 13:05:36;;;;;;;13.68;5.95;;;;;;;;;;4995657;28;20281;-75
2023/07/02 13:08:02;;;;;;;12.05;5.90;;;;;;;;;;5025027;28;21067;-74
2023/07/02 13:10:28;;;;;;;9.85;5.47;;;;;;;;;;5032050;28;20681;-75
2023/07/02 13:12:53;;;;;;;8.45;5.50;;;;;;;;;;4997734;28;20247;-75
2023/07/02 13:15:18;;;;;;;11.50;5.53;;;;;;;;;;5016131;28;20233;-76
2023/07/02 13:17:44;;;;;;;10.98;5.63;;;;;;;;;;5022379;28;20292;-75
2023/07/02 13:20:09;;;;;;;9.05;5.45;;;;;;;;;;5026469;28;20228;-75
2023/07/02 13:22:34;;;;;;;9.65;5.50;;;;;;;;;;5026346;28;20234;-75
2023/07/02 13:25:00;;;;;;;8.80;5.35;;;;;;;;;;5003755;28;20225;-75
2023/07/02 13:27:25;;;;;;;10.27;5.32;;;;;;;;;;4998627;28;20222;-76
2023/07/02 13:29:50;;;;;;;10.45;5.28;;;;;;;;;;5021409;28;20226;-76
2023/07/02 13:32:16;;;;;;;7.97;5.20;;;;;;;;;;5027106;28;20230;-76
2023/07/02 13:34:41;;;;;;;9.27;5.75;;;;;;;;;;5024059;28;20234;-77
2023/07/02 13:37:08;;;;;;;9.73;5.55;;;;;;;;;;5020469;28;20222;-77
2023/07/02 13:39:33;;;;;;;10.02;5.80;;;;;;;;;;5024995;28;20229;-76
2023/07/02 13:41:59;;;;;;;10.30;5.97;;;;;;;;;;5024472;28;20887;-75
2023/07/02 13:44:24;;;;;;;8.95;5.93;;;;;;;;;;5021613;28;20244;-75
2023/07/02 13:46:49;;;;;;;9.85;6.10;;;;;;;;;;5017129;28;20234;-76
2023/07/02 13:49:15;;;;;;;13.60;5.70;;;;;;;;;;5017774;28;20341;-76
2023/07/02 13:51:40;;;;;;;10.20;6.15;;;;;;;;;;5022958;28;20223;-76
2023/07/02 13:54:05;;;;;;;9.77;6.07;;;;;;;;;;5024987;28;20268;-76
2023/07/02 13:56:30;;;;;;;11.13;6.07;;;;;;;;;;5024664;28;20626;-74
2023/07/02 13:58:56;;;;;;;11.85;6.22;;;;;;;;;;5026377;28;20222;-76
2023/07/02 14:01:21;;;;;;;10.80;6.40;;;;;;;;;;5022744;28;20359;-75
2023/07/02 14:03:46;;;;;;;9.95;5.75;;;;;;;;;;5024770;28;20222;-75
2023/07/02 14:06:12;;;;;;;10.07;5.80;;;;;;;;;;5010290;28;20226;-75
2023/07/02 14:08:37;;;;;;;8.63;5.47;;;;;;;;;;5027158;28;20321;-75
2023/07/02 14:11:02;;;;;;;11.70;6.15;;;;;;;;;;5021952;28;20301;-75
2023/07/02 14:13:28;;;;;;;10.13;6.03;;;;;;;;;;5021125;28;20252;-74
2023/07/02 14:15:53;;;;;;;10.05;6.18;;;;;;;;;;4992540;28;20378;-74
2023/07/02 14:18:18;;;;;;;12.10;6.32;;;;;;;;;;4995676;28;20315;-74
2023/07/02 14:20:43;;;;;;;11.45;5.70;;;;;;;;;;5017311;28;20226;-76
2023/07/02 14:23:09;;;;;;;14.55;6.20;;;;;;;;;;5015125;28;20219;-76